Tiempo atmosférico en la estación meteorológica de Arcos de Jalón, Soria (863 m.)



Fecha
DESCASC
Temp. máxima en grados centígrados (hora)
DESCASC
Temp. mínima en grados centígrados (hora)
DESCASC
Temp. media en grados centígrados
DESCASC
Racha de viento máxima en m/sg (hora)
DESCASC
Velocidad máxima media en intervalos de 10 minutos(hora)
DESCASC
Precipitaciones diarias en mm
DESCASC
Precipitaciones de 00:00 a 06:00 en mm
DESCASC
Precipitaciones de 06:00 a 12:00 en mm
DESCASC
Precipitaciones de 12:00 a 18:00 en mm
DESCASC
Precipitaciones de 18:00 a 24:00 en mm
DESCASC
03-12-2020 10.8 (13:30) -3.9 (05:40) 3.5 15.28 (18:30) 9.44 (18:30) 0 0 0 0 0
02-12-2020 7.5 (13:40) -1.7 (23:59) 2.9 13.06 (12:00) 6.67 (15:00) 0 0 0 0 0
01-12-2020 14.4 (14:00) -0.5 (08:00) 6.9 8.61 (13:50) 4.72 (12:10) 0 0 0 0 0
30-11-2020 11.2 (15:10) 0.3 (00:00) 5.7 5.28 (04:10) 4.17 (23:20) 0 0 0 0 0
29-11-2020 11.8 (16:10) 2.6 (00:00) 7.2 4.72 (09:40) 3.61 (09:40) 0 0 0 0 0
28-11-2020 10.1 (14:30) 6.9 (00:00) 8.5 6.67 (01:30) 3.89 (01:40) 0.2 0 0.2 0 0
27-11-2020 10 (13:40) 6.9 (00:00) 8.5 8.33 (11:20) 5 (15:00) 1.6 0 0 0 1.6
26-11-2020 9.6 (13:30) 3.5 (00:00) 6.6 9.17 (15:40) 5 (15:40) 0.4 0 0 0.4 0
25-11-2020 11.9 (14:10) 0.3 (00:00) 6.1 7.22 (13:10) 3.89 (12:10) 0 0 0 0 0
24-11-2020 15.5 (14:20) -1.9 (-00:0) 6.8 6.39 (14:20) 4.17 (16:30) 0 0 0 0 0
23-11-2020 14.3 (16:20) -0.2 (00:00) 7.1 5.28 (05:30) 3.89 (00:30) 0 0 0 0 0
22-11-2020 17 (15:30) -2.4 (-00:0) 7.3 5.56 (21:30) 3.89 (21:20) 0 0 0 0 0
21-11-2020 13.9 (16:20) -0.4 (00:00) 6.7 5 (20:30) 3.89 (20:30) 0 0 0 0 0
20-11-2020 14 (16:00) 0.7 (00:00) 7.3 9.44 (12:20) 4.72 (15:10) 0 0 0 0 0
19-11-2020 18.8 (14:00) 4.7 (00:00) 11.7 8.06 (19:00) 4.44 (17:40) 0 0 0 0 0
18-11-2020 21.3 (14:50) 7.6 (00:00) 14.4 8.06 (15:00) 5 (01:00) 0 0 0 0 0
17-11-2020 21 (16:10) 4.9 (00:00) 13 5 (22:40) 3.89 (07:40) 0 0 0 0 0
16-11-2020 16.8 (15:30) 7.1 (00:00) 11.9 11.67 (01:30) 7.22 (00:10) 1 1 0 0 0
15-11-2020 15.9 (13:10) 11.4 (00:00) 13.6 17.5 (13:30) 9.72 (12:30) 0.2 0 0.2 0 0
14-11-2020 14.2 (13:40) 3.9 (00:00) 9 10.28 (23:20) 7.22 (23:20) 0.2 0 0 0.2 0
13-11-2020 16.5 (16:30) 3.9 (00:00) 10.2 6.67 (15:30) 4.17 (15:30) 0 0 0 0 0
12-11-2020 13.7 (15:50) 6.4 (00:00) 10 4.72 (08:30) 3.61 (08:30) 0 0 0 0 0
11-11-2020 17.1 (15:40) 1.6 (00:00) 9.4 13.33 (13:30) 6.94 (14:10) 0 0 0 0 0
10-11-2020 15.3 (16:30) 4 (00:00) 9.7 6.39 (03:00) 4.72 (03:00) -- -- 0 0 0
09-11-2020 -- (--) -- (--) -- -- (--) -- (--) -- -- -- -- --
08-11-2020 15.6 (16:10) 6.4 (00:00) 11 11.11 (14:50) 7.22 (12:30) -- -- -- -- --
07-11-2020 13 (12:20) 9.6 (00:00) 11.3 13.89 (05:00) 9.72 (05:00) -- -- -- -- --
06-11-2020 17.6 (15:50) 8.6 (00:00) 13.1 11.94 (13:40) 7.22 (15:50) -- -- -- -- --
05-11-2020 9.8 (14:30) 5 (00:00) 7.4 9.72 (15:50) 5.83 (16:40) -- -- -- -- --

Gráficas

Temp. máximas Temp. mínimas Temp. medias Precipitaciones Rachas de viento máximas Velocidades máximas media en intervalos de 10 minutos

Datos horarios

Fecha y hora oficial Temperatura (ºC) Velocidad del viento (km/h) Dirección del viento Racha (km/h) Dirección de racha Precipitación (mm) Presión (hPa) Tendencia (hPa) Humedad (%)
2020-12-04 23:00:00 1.8 9 Sudoeste 27 Sudoeste 0 -- -- 73
2020-12-04 22:00:00 2 15 Sudoeste 31 Sudoeste 0 -- -- 70
2020-12-04 21:00:00 2.4 15 Sudoeste 27 Sudoeste 0 -- -- 66
2020-12-04 20:00:00 2.2 14 Sudoeste 29 Sudoeste 0 -- -- 65
2020-12-04 19:00:00 2.7 16 Sudoeste 28 Oeste 0 -- -- 63
2020-12-04 18:00:00 2.9 6 Sudoeste 35 Sudoeste 0 -- -- 60
2020-12-04 17:00:00 4.2 27 Sudoeste 38 Sudoeste 0 -- -- 53
2020-12-04 16:00:00 4.7 23 Sudoeste 45 Sudoeste 0 -- -- 49
2020-12-04 15:00:00 6 33 Sudoeste 56 Sudoeste 0 -- -- 47
2020-12-04 14:00:00 6.6 33 Sudoeste 63 Sudoeste 0 -- -- 49
2020-12-04 13:00:00 5.8 45 Sudoeste 61 Sudoeste 0 -- -- 50
2020-12-04 12:00:00 5.5 38 Sudoeste 56 Sudoeste 0 -- -- 58
2020-12-04 11:00:00 4 31 Sudoeste 48 Sudoeste 0 -- -- 67
2020-12-04 10:00:00 3.9 21 Sudoeste 35 Sudoeste 0 -- -- 75
2020-12-04 09:00:00 2.5 17 Sudoeste 39 Sudoeste 0 -- -- 82
2020-12-04 08:00:00 2.9 30 Sudoeste 47 Sudoeste 0 -- -- 76
2020-12-04 07:00:00 3.7 27 Sudoeste 51 Sudoeste 0 -- -- 77
2020-12-04 06:00:00 4.2 22 Sudoeste 48 Sudoeste 0 -- -- 84
2020-12-04 05:00:00 4.8 36 Sudoeste 54 Sudoeste 0.4 -- -- 86
2020-12-04 04:00:00 4 32 Sudoeste 62 Sur 0.2 -- -- 86
2020-12-04 03:00:00 4.6 39 Sur 60 Sur 0 -- -- 76
2020-12-04 02:00:00 4.9 34 Sur 63 Sur 0 -- -- 70
2020-12-04 01:00:00 4.6 37 Sur 54 Sur 0 -- -- 70
2020-12-04 00:00:00 4.5 30 Sur 45 Sur 0 -- -- 68
2020-12-03 23:00:00 4.4 21 Sur 40 Sur 0 -- -- 65
2020-12-03 22:00:00 4.3 22 Sur 39 Sur 0 -- -- 64
2020-12-03 21:00:00 4.6 24 Sur 45 Sur 0 -- -- 63
2020-12-03 20:00:00 4.9 26 Sur 48 Sur 0 -- -- 59
2020-12-03 19:00:00 5 24 Sur 55 Sur 0 -- -- 58
2020-12-03 18:00:00 5.4 25 Sudoeste 52 Sudoeste 0 -- -- 56
2020-12-03 17:00:00 7.1 21 Sur 45 Sur 0 -- -- 46
2020-12-03 16:00:00 8.3 31 Sudoeste 41 Sudoeste 0 -- -- 39
2020-12-03 15:00:00 10 26 Sudoeste 37 Sudoeste 0 -- -- 35
2020-12-03 14:00:00 10.3 25 Sudoeste 33 Sur 0 -- -- 41
2020-12-03 13:00:00 9.2 8 Sudoeste 21 Sudoeste 0 -- -- 61
2020-12-03 12:00:00 7.1 13 Sudoeste 21 Sudoeste 0 -- -- 67
2020-12-03 11:00:00 4.7 11 Sudoeste 18 Sudoeste 0 -- -- 72
2020-12-03 10:00:00 1.3 9 Sudoeste 12 Oeste 0 -- -- 81
2020-12-03 09:00:00 -0.9 0 Calma 15 Sur 0 -- -- 84
2020-12-03 08:00:00 -1.4 8 Sudoeste 20 Sudoeste 0 -- -- 84
2020-12-03 07:00:00 -1.9 10 Oeste 16 Sudoeste 0 -- -- 89
2020-12-03 06:00:00 -3.7 6 Sudoeste 14 Oeste 0 -- -- 88
2020-12-03 05:00:00 -3.1 6 Oeste 11 Sudoeste 0 -- -- 88
2020-12-03 04:00:00 -3.2 5 Sudoeste 10 Sudoeste 0 -- -- 85
2020-12-03 03:00:00 -1.8 9 Oeste 13 Oeste 0 -- -- 84
2020-12-03 02:00:00 -1.1 7 Sudoeste 15 Oeste 0 -- -- 84
2020-12-03 01:00:00 -1.6 5 Sudoeste 17 Sudoeste 0 -- -- 84
2020-12-03 00:00:00 -1.7 7 Sur 17 Oeste 0 -- -- 80
2020-12-02 23:00:00 -0.9 8 Oeste 12 Sur 0 -- -- 80
2020-12-02 22:00:00 -0.2 3 Sudoeste 14 Nordeste 0 -- -- 75
2020-12-02 21:00:00 2.2 5 Nordeste 26 Norte 0 -- -- 68
2020-12-02 20:00:00 2 3 Norte 24 Noroeste 0 -- -- 67
2020-12-02 19:00:00 3.1 8 Noroeste 27 Oeste 0 -- -- 62
2020-12-02 18:00:00 4.5 18 Oeste 42 Norte 0 -- -- 60
2020-12-02 17:00:00 5.8 18 Noroeste 46 Noroeste 0 -- -- 53
2020-12-02 16:00:00 6.5 14 Noroeste 39 Noroeste 0 -- -- 51
2020-12-02 15:00:00 6.7 24 Noroeste 44 Noroeste 0 -- -- 51
2020-12-02 14:00:00 6.9 17 Noroeste 38 Norte 0 -- -- 54
2020-12-02 13:00:00 6.9 15 Noroeste 43 Noroeste 0 -- -- 56
2020-12-02 12:00:00 6.2 20 Noroeste 47 Noroeste 0 -- -- 54
2020-12-02 11:00:00 5 9 Noroeste 30 Noroeste 0 -- -- 63
2020-12-02 10:00:00 5.6 14 Noroeste 32 Noroeste 0 -- -- 59
2020-12-02 09:00:00 3.4 10 Noroeste 29 Noroeste 0 -- -- 63
2020-12-02 08:00:00 3.7 2 Nordeste 7 Sur 0 -- -- 75
2020-12-02 07:00:00 4.9 3 Noroeste 6 Noroeste 0 -- -- 73
2020-12-02 06:00:00 5.4 6 Oeste 17 Noroeste 0 -- -- 85
2020-12-02 05:00:00 6.1 10 Noroeste 23 Oeste 0 -- -- 81
2020-12-02 04:00:00 5.3 3 Oeste 13 Sudoeste 0 -- -- 80
2020-12-02 03:00:00 5.6 6 Sudoeste 15 Oeste 0 -- -- 75
2020-12-02 02:00:00 5.8 6 Sudoeste 18 Oeste 0 -- -- 70
2020-12-02 01:00:00 6 11 Oeste 15 Sudoeste 0 -- -- 68
2020-12-02 00:00:00 5.6 4 Sudoeste 7 Sur 0 -- -- 76
2020-12-01 23:00:00 5.9 3 Sudoeste 6 Sudoeste 0 -- -- 75
2020-12-01 22:00:00 5.7 2 Sudoeste 5 Sudoeste 0 -- -- 76
2020-12-01 21:00:00 5.9 0 Calma 6 Sudoeste 0 -- -- 69
2020-12-01 20:00:00 8.1 3 Noroeste 7 Noroeste 0 -- -- 58
2020-12-01 19:00:00 7.9 0 Calma 5 Sudoeste 0 -- -- 64
2020-12-01 18:00:00 8.9 0 Calma 9 Oeste 0 -- -- 60
2020-12-01 17:00:00 10.3 2 Noroeste 22 Norte 0 -- -- 53
2020-12-01 16:00:00 11.2 9 Noroeste 24 Noroeste 0 -- -- 51
2020-12-01 15:00:00 12.4 12 Noroeste 29 Noroeste 0 -- -- 46
2020-12-01 14:00:00 14.4 16 Noroeste 31 Noroeste 0 -- -- 40
2020-12-01 13:00:00 13.1 8 Noroeste 27 Noroeste 0 -- -- 46
2020-12-01 12:00:00 12.4 13 Noroeste 29 Noroeste 0 -- -- 45
2020-12-01 11:00:00 10.5 9 Oeste 25 Oeste 0 -- -- 48
2020-12-01 10:00:00 3.5 8 Sur 12 Sur 0 -- -- 77
2020-12-01 09:00:00 0.6 7 Sudoeste 19 Sudoeste 0 -- -- 84
2020-12-01 08:00:00 -0.5 10 Sudoeste 18 Sudoeste 0 -- -- 88
2020-12-01 07:00:00 0.6 16 Sudoeste 19 Sudoeste 0 -- -- 90
2020-12-01 06:00:00 1 12 Sudoeste 21 Sudoeste 0 -- -- 90
2020-12-01 05:00:00 1.4 14 Sudoeste 19 Oeste 0 -- -- 90
2020-12-01 04:00:00 1.6 14 Sudoeste 18 Sudoeste 0 -- -- 91
2020-12-01 03:00:00 1.9 13 Sudoeste 17 Oeste -- -- -- 91
2020-12-01 02:00:00 2.3 12 Sudoeste 20 Sudoeste 0 -- -- 90
2020-12-01 01:00:00 2.8 13 Sudoeste 20 Oeste 0 -- -- 89
2020-12-01 00:00:00 3.1 14 Sudoeste 19 Sudoeste 0 -- -- 89
2020-11-30 23:00:00 3 13 Sudoeste 17 Sudoeste 0 -- -- 90
2020-11-30 22:00:00 3.3 12 Sudoeste 17 Sudoeste 0 -- -- 90
2020-11-30 21:00:00 3.4 12 Sudoeste 14 Sudoeste 0 -- -- 90
2020-11-30 20:00:00 4.4 9 Sudoeste 13 Sudoeste 0 -- -- 90
2020-11-30 19:00:00 5 9 Sudoeste 12 Sudoeste 0 -- -- 86
2020-11-30 18:00:00 7.5 0 Calma 3 Sur 0 -- -- 80
2020-11-30 17:00:00 9.6 0 Calma 7 Este 0 -- -- 74
2020-11-30 16:00:00 10.5 5 Nordeste 8 Este 0 -- -- 70
2020-11-30 15:00:00 11 5 Este 9 Nordeste 0 -- -- 71
2020-11-30 14:00:00 9.7 3 Este 8 Este 0 -- -- 74
2020-11-30 13:00:00 8.4 3 Nordeste 9 Nordeste 0 -- -- 79
2020-11-30 12:00:00 8 7 Nordeste 10 Nordeste 0 -- -- 79
2020-11-30 11:00:00 6.4 0 Calma 4 Nordeste 0 -- -- 85
2020-11-30 10:00:00 3.7 2 Nordeste 4 Nordeste 0 -- -- 91
2020-11-30 09:00:00 1.9 6 Sudoeste 15 Sudoeste 0 -- -- 93
2020-11-30 08:00:00 0.9 10 Sudoeste 14 Sudoeste 0 -- -- 93
2020-11-30 07:00:00 0.8 8 Sudoeste 10 Sudoeste 0 -- -- 93
2020-11-30 06:00:00 0.6 0 Calma 9 Oeste 0 -- -- 90
2020-11-30 05:00:00 1.6 8 Oeste 19 Sudoeste 0 -- -- 89
2020-11-30 04:00:00 1.9 13 Sudoeste 17 Sudoeste 0 -- -- 90
2020-11-30 03:00:00 2.1 12 Sudoeste 15 Sudoeste 0 -- -- 90
2020-11-30 02:00:00 2.4 13 Sudoeste 18 Sudoeste 0 -- -- 88
2020-11-30 01:00:00 2.7 12 Sudoeste 16 Sudoeste 0 -- -- 89
2020-11-30 00:00:00 2.9 11 Sudoeste 16 Sudoeste 0 -- -- 89
2020-11-29 23:00:00 2.6 10 Sudoeste 14 Sudoeste 0 -- -- 89
2020-11-29 22:00:00 3.2 8 Sudoeste 13 Sudoeste 0 -- -- 87
2020-11-29 21:00:00 4.2 8 Sudoeste 13 Sudoeste 0 -- -- 86
2020-11-29 20:00:00 4.7 8 Sudoeste 12 Sudoeste 0 -- -- 86
2020-11-29 19:00:00 5.7 0 Calma 8 Sudoeste 0 -- -- 82
2020-11-29 18:00:00 9.2 0 Calma 3 Este 0 -- -- 76
2020-11-29 17:00:00 11.3 3 Sudeste 7 Oeste 0 -- -- 71
2020-11-29 16:00:00 11.7 3 Norte 8 Nordeste 0 -- -- 69
2020-11-29 15:00:00 10.7 3 Nordeste 10 Este 0 -- -- 73
2020-11-29 14:00:00 10.9 6 Nordeste 16 Nordeste 0 -- -- 71
2020-11-29 13:00:00 10.5 7 Nordeste 13 Nordeste 0 -- -- 73
2020-11-29 12:00:00 9.8 0 Calma 8 Sudoeste 0 -- -- 76
2020-11-29 11:00:00 7.6 5 Sudoeste 14 Sudoeste 0 -- -- 86
2020-11-29 10:00:00 5.8 10 Sudoeste 17 Oeste 0 -- -- 94
2020-11-29 09:00:00 3.8 10 Sudoeste 15 Sudoeste 0 -- -- 96
2020-11-29 08:00:00 3.5 7 Sudoeste 12 Oeste 0 -- -- 95
2020-11-29 07:00:00 3.5 9 Sudoeste 11 Sudoeste 0 -- -- 93
2020-11-29 06:00:00 4.2 6 Sudoeste 15 Sudoeste 0 -- -- 92
2020-11-29 05:00:00 5 10 Sudoeste 14 Sudoeste 0 -- -- 92
2020-11-29 04:00:00 5.2 4 Sudoeste 7 Oeste 0 -- -- 91
2020-11-29 03:00:00 6 0 Calma 6 Sudoeste 0 -- -- 91
2020-11-29 02:00:00 6.9 3 Sur 8 Sur 0 -- -- 91
2020-11-29 01:00:00 7.3 0 Calma 8 Sudoeste 0 -- -- 91
2020-11-29 00:00:00 7.6 3 Sudoeste 8 Sudoeste 0 -- -- 90
2020-11-28 23:00:00 7.9 5 Sudoeste 8 Sudoeste 0 -- -- 90
2020-11-28 22:00:00 8 0 Calma 4 Sur 0 -- -- 90
2020-11-28 21:00:00 8 0 Calma 3 Sur 0 -- -- 89
2020-11-28 20:00:00 8.3 0 Calma 3 Norte 0 -- -- 87
2020-11-28 19:00:00 8.7 3 Norte 7 Nordeste 0 -- -- 87
2020-11-28 18:00:00 9 4 Nordeste 15 Nordeste 0 -- -- 85
2020-11-28 17:00:00 9.6 6 Nordeste 12 Nordeste 0 -- -- 82
2020-11-28 16:00:00 9.7 4 Nordeste 12 Nordeste 0 -- -- 80
2020-11-28 15:00:00 9.9 4 Nordeste 12 Este 0 -- -- 77
2020-11-28 14:00:00 9.6 4 Nordeste 11 Nordeste 0 -- -- 77
2020-11-28 13:00:00 9.5 5 Este 9 Nordeste 0 -- -- 84
2020-11-28 12:00:00 8.4 0 Calma 9 Nordeste 0 -- -- 93
2020-11-28 11:00:00 7.6 5 Nordeste 9 Nordeste 0 -- -- 95
2020-11-28 10:00:00 7.2 3 Norte 7 Nordeste 0.2 -- -- 95
2020-11-28 09:00:00 7 0 Calma 3 Nordeste 0 -- -- 95
2020-11-28 08:00:00 6.9 0 Calma 6 Norte 0 -- -- 94
2020-11-28 07:00:00 7 4 Nordeste 12 Nordeste 0 -- -- 94
2020-11-28 06:00:00 7.1 5 Norte 12 Nordeste 0 -- -- 94
2020-11-28 05:00:00 7.2 5 Norte 17 Norte 0 -- -- 93
2020-11-28 04:00:00 7.2 6 Norte 16 Norte 0 -- -- 94
2020-11-28 03:00:00 7 9 Norte 17 Norte 0 -- -- 94
2020-11-28 02:00:00 7 11 Nordeste 24 Nordeste 0 -- -- 94
2020-11-28 01:00:00 6.9 9 Nordeste 17 Nordeste 0 -- -- 94
2020-11-28 00:00:00 6.9 9 Nordeste 21 Nordeste 0 -- -- 92
2020-11-27 23:00:00 7 8 Nordeste 22 Nordeste 0 -- -- 91
2020-11-27 22:00:00 7.2 5 Norte 13 Nordeste 0.4 -- -- 93
2020-11-27 21:00:00 7.6 7 Nordeste 19 Nordeste 1 -- -- 94
2020-11-27 20:00:00 8.1 8 Nordeste 14 Norte 0 -- -- 93
2020-11-27 19:00:00 8.3 10 Norte 26 Nordeste 0.2 -- -- 91
2020-11-27 18:00:00 9.3 12 Norte 27 Nordeste 0 -- -- 89
2020-11-27 17:00:00 9.5 12 Nordeste 25 Nordeste 0 -- -- 87
2020-11-27 16:00:00 9.7 14 Nordeste 30 Nordeste 0 -- -- 87
2020-11-27 15:00:00 9.8 18 Nordeste 30 Nordeste 0 -- -- 87
2020-11-27 14:00:00 9.9 12 Norte 30 Nordeste 0 -- -- 86
2020-11-27 13:00:00 9.8 16 Nordeste 27 Nordeste 0 -- -- 87
2020-11-27 12:00:00 9.5 15 Nordeste 30 Nordeste 0 -- -- 90
2020-11-27 11:00:00 9.1 14 Nordeste 27 Nordeste 0 -- -- 92
2020-11-27 10:00:00 8.6 11 Nordeste 24 Nordeste 0 -- -- 91
2020-11-27 09:00:00 8.8 10 Norte 26 Nordeste 0 -- -- 90
2020-11-27 08:00:00 9 17 Nordeste 28 Nordeste 0 -- -- 92
2020-11-27 07:00:00 9 15 Nordeste 26 Nordeste 0 -- -- 94
2020-11-27 06:00:00 8.8 12 Nordeste 24 Nordeste 0 -- -- 94
2020-11-27 05:00:00 8.7 10 Nordeste 19 Nordeste 0 -- -- 93
2020-11-27 04:00:00 8.6 9 Nordeste 17 Norte 0 -- -- 91
2020-11-27 03:00:00 8.3 2 Nordeste 13 Nordeste 0 -- -- 89
2020-11-27 02:00:00 7.9 6 Nordeste 16 Nordeste 0 -- -- 91
2020-11-27 01:00:00 7.9 6 Norte 12 Norte 0 -- -- 90
2020-11-27 00:00:00 8.6 9 Norte 18 Norte 0 -- -- 88
2020-11-26 23:00:00 8.5 10 Norte 20 Norte 0 -- -- 89
2020-11-26 22:00:00 8.3 11 Norte 23 Nordeste 0 -- -- 90
2020-11-26 21:00:00 8.2 12 Norte 26 Norte 0 -- -- 91
2020-11-26 20:00:00 8.2 10 Norte 26 Norte 0 -- -- 90
2020-11-26 19:00:00 8.7 11 Norte 22 Norte 0 -- -- 90
2020-11-26 18:00:00 8.7 10 Norte 24 Norte 0 -- -- 90
2020-11-26 17:00:00 8.9 16 Nordeste 28 Nordeste 0 -- -- 89
2020-11-26 16:00:00 9 18 Nordeste 33 Nordeste 0 -- -- 88
2020-11-26 15:00:00 9.2 12 Nordeste 25 Nordeste 0 -- -- 86
2020-11-26 14:00:00 9 12 Norte 20 Nordeste 0.4 -- -- 87
2020-11-26 13:00:00 9 3 Nordeste 15 Norte 0 -- -- 82
2020-11-26 12:00:00 8.2 3 Nordeste 8 Norte 0 -- -- 80
2020-11-26 11:00:00 6.4 2 Nordeste 5 Norte 0 -- -- 87
2020-11-26 10:00:00 5.5 0 Calma 2 Este 0 -- -- 91
2020-11-26 09:00:00 4.5 0 Calma 3 Oeste 0 -- -- 91
2020-11-26 08:00:00 4.5 0 Calma 5 Sur 0 -- -- 90
2020-11-26 07:00:00 3.7 0 Calma 6 Sur 0 -- -- 90
2020-11-26 06:00:00 4.1 0 Calma 3 Sudoeste 0 -- -- 89
2020-11-26 05:00:00 4.1 0 Calma 9 Oeste 0 -- -- 89
2020-11-26 04:00:00 3.9 0 Calma 5 Sudoeste 0 -- -- 89
2020-11-26 03:00:00 3.9 2 Sur 4 Oeste 0 -- -- 87
2020-11-26 02:00:00 4.4 0 Calma 4 Sur 0 -- -- 87
2020-11-26 01:00:00 4.1 0 Calma 4 Norte 0 -- -- 85
2020-11-26 00:00:00 3.5 0 Calma 4 Sudoeste 0 -- -- 85
2020-11-25 23:00:00 3.5 0 Calma 4 Sur 0 -- -- 84
2020-11-25 22:00:00 3.9 0 Calma 2 Norte 0 -- -- 80
2020-11-25 21:00:00 5.7 2 Sudoeste 6 Sudoeste 0 -- -- 75
2020-11-25 20:00:00 8.1 0 Calma 6 Sur 0 -- -- 71
2020-11-25 19:00:00 9.5 0 Calma 10 Sur 0 -- -- 68
2020-11-25 18:00:00 10.6 4 Sudeste 16 Sudeste 0 -- -- 65
2020-11-25 17:00:00 11.3 6 Sudeste 16 Sudeste 0 -- -- 63
2020-11-25 16:00:00 11.7 5 Sur 17 Sur 0 -- -- 62
2020-11-25 15:00:00 11.5 12 Sur 23 Sur 0 -- -- 62
2020-11-25 14:00:00 11.7 14 Sur 26 Sur 0 -- -- 61
2020-11-25 13:00:00 10.9 14 Sur 22 Sudeste 0 -- -- 63
2020-11-25 12:00:00 11.6 9 Sur 23 Sur 0 -- -- 61
2020-11-25 11:00:00 7.9 3 Nordeste 8 Nordeste 0 -- -- 68
2020-11-25 10:00:00 5.7 3 Nordeste 6 Sudoeste 0 -- -- 78
2020-11-25 09:00:00 2.6 0 Calma 5 Sudoeste 0 -- -- 88
2020-11-25 08:00:00 3 3 Norte 4 Norte 0 -- -- 83
2020-11-25 07:00:00 3.2 2 Norte 4 Norte 0 -- -- 85
2020-11-25 06:00:00 3.2 4 Oeste 10 Sudoeste 0 -- -- 87
2020-11-25 05:00:00 2.4 0 Calma 6 Sudoeste 0 -- -- 87
2020-11-25 04:00:00 1.8 5 Sudoeste 14 Sudoeste 0 -- -- 89
2020-11-25 03:00:00 0.3 4 Sudoeste 12 Sudoeste 0 -- -- 86
2020-11-25 02:00:00 0.9 4 Sudoeste 6 Sudoeste 0 -- -- 85
2020-11-25 01:00:00 2.3 3 Oeste 11 Oeste 0 -- -- 83
2020-11-25 00:00:00 4 9 Oeste 13 Oeste 0 -- -- 81
2020-11-24 23:00:00 3.3 3 Sudoeste 13 Sudoeste 0 -- -- 76
2020-11-24 22:00:00 4.6 9 Sudoeste 17 Sudoeste 0 -- -- 73
2020-11-24 21:00:00 5.5 11 Sudoeste 13 Sudoeste 0 -- -- 69
2020-11-24 20:00:00 6.8 8 Sudoeste 20 Sur 0 -- -- 63
2020-11-24 19:00:00 9.3 12 Sudoeste 23 Sur 0 -- -- 56
2020-11-24 18:00:00 10.5 11 Sudoeste 17 Sur 0 -- -- 53
2020-11-24 17:00:00 13.3 13 Sudoeste 22 Sudoeste 0 -- -- 39
2020-11-24 16:00:00 15.1 13 Sudoeste 18 Sur 0 -- -- 33
2020-11-24 15:00:00 15.4 12 Sur 23 Sur 0 -- -- 36
2020-11-24 14:00:00 15.2 12 Sudoeste 21 Sudoeste 0 -- -- 39
2020-11-24 13:00:00 13.8 15 Sudoeste 22 Sudoeste 0 -- -- 42
2020-11-24 12:00:00 9.3 4 Nordeste 9 Nordeste 0 -- -- 63
2020-11-24 11:00:00 6.7 4 Nordeste 8 Este 0 -- -- 70
2020-11-24 10:00:00 5.2 0 Calma 4 Nordeste 0 -- -- 77
2020-11-24 09:00:00 -0.4 0 Calma 2 Nordeste 0 -- -- 92
2020-11-24 08:00:00 -1.9 2 Sudoeste 4 Sudoeste 0 -- -- 88
2020-11-24 07:00:00 -0.6 0 Calma 5 Norte 0 -- -- 87
2020-11-24 06:00:00 0 3 Nordeste 11 Sudoeste 0 -- -- 87
2020-11-24 05:00:00 0.3 2 Este 6 Nordeste 0 -- -- 87
2020-11-24 04:00:00 0.5 0 Calma 6 Sur 0 -- -- 83
2020-11-24 03:00:00 2.1 0 Calma 9 Sudoeste 0 -- -- 81
2020-11-24 02:00:00 3.2 8 Sudoeste 12 Sudoeste 0 -- -- 81
2020-11-24 01:00:00 3.1 7 Oeste 12 Oeste 0 -- -- 79
2020-11-24 00:00:00 3.5 9 Sudoeste 14 Oeste 0 -- -- 76
2020-11-23 23:00:00 3.8 9 Sudoeste 13 Sudoeste 0 -- -- 77
2020-11-23 22:00:00 4.9 6 Sudoeste 18 Sudoeste 0 -- -- 71
2020-11-23 21:00:00 4.8 13 Sudoeste 15 Sudoeste 0 -- -- 74
2020-11-23 20:00:00 5.4 10 Sudoeste 14 Sudoeste 0 -- -- 70
2020-11-23 19:00:00 5.9 7 Sudoeste 12 Sudoeste 0 -- -- 67
2020-11-23 18:00:00 10.6 0 Calma 4 Nordeste 0 -- -- 52
2020-11-23 17:00:00 14.3 3 Nordeste 8 Nordeste 0 -- -- 43
2020-11-23 16:00:00 14.1 5 Nordeste 10 Este 0 -- -- 44
2020-11-23 15:00:00 13.6 6 Nordeste 12 Este 0 -- -- 46
2020-11-23 14:00:00 12.6 7 Nordeste 13 Este 0 -- -- 49
2020-11-23 13:00:00 11.1 5 Nordeste 9 Nordeste 0 -- -- 54
2020-11-23 12:00:00 8.9 5 Nordeste 9 Este 0 -- -- 60
2020-11-23 11:00:00 7.2 3 Nordeste 6 Nordeste 0 -- -- 65
2020-11-23 10:00:00 4.7 2 Este 11 Sudoeste 0 -- -- 73
2020-11-23 09:00:00 1 7 Sudoeste 12 Sudoeste 0 -- -- 86
2020-11-23 08:00:00 0 10 Sudoeste 13 Sudoeste 0 -- -- 86
2020-11-23 07:00:00 0.5 9 Sudoeste 14 Sudoeste 0 -- -- 84
2020-11-23 06:00:00 0.9 11 Sudoeste 19 Sudoeste 0 -- -- 82
2020-11-23 05:00:00 1.2 10 Sudoeste 15 Oeste 0 -- -- 83
2020-11-23 04:00:00 1.8 9 Sudoeste 14 Sudoeste 0 -- -- 80
2020-11-23 03:00:00 2 12 Sudoeste 16 Sudoeste 0 -- -- 81
2020-11-23 02:00:00 2.3 12 Sudoeste 15 Sudoeste 0 -- -- 79
2020-11-23 01:00:00 3.3 13 Sudoeste 17 Sudoeste 0 -- -- 78
2020-11-23 00:00:00 3.5 12 Sudoeste 17 Sudoeste 0 -- -- 76
2020-11-22 23:00:00 4.1 11 Sudoeste 15 Sudoeste 0 -- -- 74
2020-11-22 22:00:00 4.7 8 Sudoeste 20 Sudoeste 0 -- -- 73
2020-11-22 21:00:00 5.3 12 Sudoeste 16 Sudoeste 0 -- -- 70
2020-11-22 20:00:00 5.7 11 Sudoeste 14 Sudoeste 0 -- -- 67
2020-11-22 19:00:00 6.8 8 Sudoeste 13 Sudoeste 0 -- -- 60
2020-11-22 18:00:00 11.4 3 Sudoeste 15 Oeste 0 -- -- 47
2020-11-22 17:00:00 14.8 10 Noroeste 16 Noroeste 0 -- -- 38
2020-11-22 16:00:00 16.5 10 Noroeste 18 Noroeste 0 -- -- 33
2020-11-22 15:00:00 16.5 3 Nordeste 12 Este 0 -- -- 40
2020-11-22 14:00:00 15.1 7 Nordeste 12 Nordeste 0 -- -- 44
2020-11-22 13:00:00 12.5 6 Nordeste 10 Nordeste 0 -- -- 50
2020-11-22 12:00:00 9.2 4 Nordeste 9 Nordeste 0 -- -- 57
2020-11-22 11:00:00 5.9 4 Nordeste 9 Nordeste 0 -- -- 63
2020-11-22 10:00:00 3.5 3 Nordeste 6 Nordeste 0 -- -- 67
2020-11-22 09:00:00 0 3 Nordeste 5 Nordeste 0 -- -- 79
2020-11-22 08:00:00 -2.4 0 Calma 4 Sudoeste 0 -- -- 83
2020-11-22 07:00:00 -1.2 3 Norte 10 Nordeste 0 -- -- 82
2020-11-22 06:00:00 -0.4 4 Nordeste 12 Sudoeste 0 -- -- 82
2020-11-22 05:00:00 -1.3 0 Calma 5 Norte 0 -- -- 79
2020-11-22 04:00:00 -0.4 0 Calma 4 Norte 0 -- -- 77
2020-11-22 03:00:00 0.8 0 Calma 12 Oeste 0 -- -- 70
2020-11-22 02:00:00 2.9 10 Oeste 19 Sudoeste 0 -- -- 70
2020-11-22 01:00:00 1.8 9 Sudoeste 14 Sudoeste 0 -- -- 70
2020-11-22 00:00:00 1.6 10 Sudoeste 17 Sudoeste 0 -- -- 68
2020-11-21 23:00:00 2.6 11 Sudoeste 16 Sudoeste 0 -- -- 65
2020-11-21 22:00:00 2.3 11 Sudoeste 17 Sudoeste 0 -- -- 64
2020-11-21 21:00:00 2.9 12 Sudoeste 18 Sudoeste 0 -- -- 61
2020-11-21 20:00:00 3.6 12 Sudoeste 15 Sudoeste 0 -- -- 60
2020-11-21 19:00:00 4.1 10 Sudoeste 12 Sudoeste 0 -- -- 58
2020-11-21 18:00:00 9.6 0 Calma 5 Norte 0 -- -- 42
2020-11-21 17:00:00 13.1 4 Nordeste 11 Nordeste 0 -- -- 33
2020-11-21 16:00:00 13.6 5 Nordeste 12 Norte 0 -- -- 29
2020-11-21 15:00:00 12.8 7 Nordeste 12 Nordeste 0 -- -- 30
2020-11-21 14:00:00 11.8 5 Nordeste 12 Nordeste 0 -- -- 31
2020-11-21 13:00:00 10.5 6 Nordeste 11 Nordeste 0 -- -- 31
2020-11-21 12:00:00 9.3 5 Este 9 Este 0 -- -- 38
2020-11-21 11:00:00 6.7 5 Nordeste 9 Nordeste 0 -- -- 45
2020-11-21 10:00:00 4.6 3 Nordeste 5 Nordeste 0 -- -- 52
2020-11-21 09:00:00 1 3 Sudoeste 15 Sudoeste 0 -- -- 66
2020-11-21 08:00:00 -0.3 9 Sudoeste 15 Sudoeste 0 -- -- 66
2020-11-21 07:00:00 -0.3 11 Sudoeste 18 Sudoeste 0 -- -- 65
2020-11-21 06:00:00 0.5 9 Sudoeste 17 Sudoeste 0 -- -- 61
2020-11-21 05:00:00 1 12 Sudoeste 15 Sudoeste 0 -- -- 59
2020-11-21 04:00:00 0.2 9 Sudoeste 13 Oeste 0 -- -- 65
2020-11-21 03:00:00 0.6 5 Sudoeste 13 Sudoeste 0 -- -- 65
2020-11-21 02:00:00 2.3 6 Oeste 13 Este 0 -- -- 61
2020-11-21 01:00:00 2.3 6 Sudoeste 10 Sur 0 -- -- 63
2020-11-21 00:00:00 2.3 4 Oeste 9 Oeste 0 -- -- 68
2020-11-20 23:00:00 2.5 4 Sudoeste 9 Oeste 0 -- -- 69
2020-11-20 22:00:00 2.9 3 Sudoeste 8 Oeste 0 -- -- 67
2020-11-20 21:00:00 3.9 3 Oeste 9 Sur 0 -- -- 64
2020-11-20 20:00:00 5.5 3 Oeste 6 Norte 0 -- -- 56
2020-11-20 19:00:00 8 0 Calma 8 Noroeste 0 -- -- 46
2020-11-20 18:00:00 9.9 5 Noroeste 22 Norte 0 -- -- 39
2020-11-20 17:00:00 12.5 9 Norte 21 Norte 0 -- -- 32
2020-11-20 16:00:00 14 10 Noroeste 31 Norte 0 -- -- 31
2020-11-20 15:00:00 13.9 16 Noroeste 28 Noroeste 0 -- -- 29
2020-11-20 14:00:00 13.3 9 Noroeste 23 Norte 0 -- -- 37
2020-11-20 13:00:00 12 7 Noroeste 34 Norte 0 -- -- 39
2020-11-20 12:00:00 10.9 13 Norte 29 Noroeste 0 -- -- 44
2020-11-20 11:00:00 9.2 5 Norte 14 Norte 0 -- -- 57
2020-11-20 10:00:00 7.3 4 Norte 12 Norte 0 -- -- 67
2020-11-20 09:00:00 2.6 3 Sudoeste 11 Sudoeste 0 -- -- 85
2020-11-20 08:00:00 1 3 Oeste 8 Sudoeste 0 -- -- 86
2020-11-20 07:00:00 0.9 6 Sudoeste 9 Sudoeste 0 -- -- 89
2020-11-20 06:00:00 1 4 Sudoeste 9 Sudoeste 0 -- -- 89
2020-11-20 05:00:00 0.9 4 Sudoeste 9 Sudoeste 0 -- -- 89
2020-11-20 04:00:00 1.5 6 Sudoeste 10 Sudoeste 0 -- -- 89
2020-11-20 03:00:00 2.1 3 Sudoeste 8 Sudoeste 0 -- -- 88
2020-11-20 02:00:00 3 0 Calma 8 Sudoeste 0 -- -- 89
2020-11-20 01:00:00 4.2 3 Este 10 Oeste 0 -- -- 89
2020-11-20 00:00:00 4.7 6 Sudoeste 10 Oeste 0 -- -- 86
2020-11-19 23:00:00 7.9 2 Norte 18 Norte 0 -- -- 78
2020-11-19 22:00:00 8.8 10 Norte 19 Norte 0 -- -- 79
2020-11-19 21:00:00 9.7 0 Calma 17 Nordeste 0 -- -- 78
2020-11-19 20:00:00 10.8 5 Norte 24 Norte 0 -- -- 78
2020-11-19 19:00:00 12.2 13 Noroeste 29 Norte 0 -- -- 74
2020-11-19 18:00:00 13.9 10 Norte 27 Norte 0 -- -- 68
2020-11-19 17:00:00 16.5 13 Norte 22 Norte 0 -- -- 59
2020-11-19 16:00:00 17.6 9 Noroeste 20 Noroeste 0 -- -- 56
2020-11-19 15:00:00 17.6 12 Norte 27 Noroeste 0 -- -- 57
2020-11-19 14:00:00 18.8 13 Norte 22 Norte 0 -- -- 53
2020-11-19 13:00:00 18 11 Norte 23 Norte 0 -- -- 56
2020-11-19 12:00:00 17.1 9 Norte 19 Noroeste 0 -- -- 62
2020-11-19 11:00:00 15.8 7 Norte 19 Nordeste 0 -- -- 66
2020-11-19 10:00:00 11.1 3 Sur 7 Sudoeste 0 -- -- 81
2020-11-19 09:00:00 6.2 4 Sudoeste 7 Sur 0 -- -- 91
2020-11-19 08:00:00 4.8 3 Sudoeste 10 Sudoeste 0 -- -- 89
2020-11-19 07:00:00 5.2 4 Sudoeste 10 Sudoeste 0 -- -- 88
2020-11-19 06:00:00 5.8 4 Sudoeste 14 Sudoeste 0 -- -- 86
2020-11-19 05:00:00 5.8 9 Sudoeste 13 Sudoeste 0 -- -- 87
2020-11-19 04:00:00 6.4 8 Sudoeste 12 Sudoeste 0 -- -- 85
2020-11-19 03:00:00 7.1 10 Sudoeste 14 Sudoeste 0 -- -- 82
2020-11-19 02:00:00 8.3 11 Oeste 15 Oeste 0 -- -- 80
2020-11-19 01:00:00 9.1 7 Sur 15 Sudoeste 0 -- -- 75
2020-11-19 00:00:00 10.6 14 Sudoeste 21 Sudoeste 0 -- -- 73
2020-11-18 23:00:00 10.4 12 Sudoeste 18 Sudoeste 0 -- -- 75
2020-11-18 22:00:00 10.6 12 Sudoeste 18 Sudoeste 0 -- -- 74
2020-11-18 21:00:00 11.1 11 Sudoeste 16 Sudoeste 0 -- -- 71
2020-11-18 20:00:00 12.8 13 Oeste 17 Sudoeste 0 -- -- 64
2020-11-18 19:00:00 12.6 5 Sudoeste 10 Sudoeste 0 -- -- 61
2020-11-18 18:00:00 15.1 8 Sudoeste 14 Sudoeste 0 -- -- 52
2020-11-18 17:00:00 19.9 13 Sudoeste 24 Sudoeste 0 -- -- 38
2020-11-18 16:00:00 21 16 Sudoeste 27 Sudoeste 0 -- -- 41
2020-11-18 15:00:00 21.1 18 Sudoeste 29 Sudoeste 0 -- -- 38
2020-11-18 14:00:00 20.4 17 Sudoeste 24 Sudoeste 0 -- -- 43
2020-11-18 13:00:00 19.3 12 Sudoeste 22 Sudoeste 0 -- -- 50
2020-11-18 12:00:00 17 13 Sudoeste 19 Sudoeste 0 -- -- 63
2020-11-18 11:00:00 14.8 13 Sudoeste 17 Oeste 0 -- -- 74
2020-11-18 10:00:00 12.1 10 Sudoeste 16 Sudoeste 0 -- -- 83
2020-11-18 09:00:00 9 11 Sudoeste 20 Sudoeste 0 -- -- 91
2020-11-18 08:00:00 8.3 16 Sudoeste 22 Sudoeste 0 -- -- 90
2020-11-18 07:00:00 7.7 15 Sudoeste 18 Sudoeste 0 -- -- 91
2020-11-18 06:00:00 7.7 11 Sudoeste 17 Sudoeste 0 -- -- 90
2020-11-18 05:00:00 8.5 12 Sudoeste 20 Sudoeste 0 -- -- 90
2020-11-18 04:00:00 8.6 10 Sudoeste 15 Sudoeste 0 -- -- 91
2020-11-18 03:00:00 9.4 12 Sudoeste 18 Sudoeste 0 -- -- 90
2020-11-18 02:00:00 9.7 12 Sudoeste 22 Sudoeste 0 -- -- 90
2020-11-18 01:00:00 9.9 18 Sudoeste 22 Sudoeste 0 -- -- 92
2020-11-18 00:00:00 9.3 13 Sudoeste 17 Sudoeste 0 -- -- 89
2020-11-17 23:00:00 9.9 12 Sudoeste 18 Sudoeste 0 -- -- 87
2020-11-17 22:00:00 9.9 10 Sudoeste 15 Sudoeste 0 -- -- 88
2020-11-17 21:00:00 10 7 Sudoeste 17 Sudoeste 0 -- -- 85
2020-11-17 20:00:00 11.1 12 Oeste 13 Sudoeste 0 -- -- 80
2020-11-17 19:00:00 11.9 7 Sudoeste 13 Sudoeste 0 -- -- 76
2020-11-17 18:00:00 15.2 8 Sudoeste 12 Oeste 0 -- -- 62
2020-11-17 17:00:00 20 7 Sudoeste 18 Sur 0 -- -- 47
2020-11-17 16:00:00 20.6 3 Sudoeste 9 Sur 0 -- -- 42
2020-11-17 15:00:00 20.1 4 Sudeste 11 Sudeste 0 -- -- 44
2020-11-17 14:00:00 18.4 5 Nordeste 11 Nordeste 0 -- -- 50
2020-11-17 13:00:00 16.7 5 Nordeste 12 Nordeste 0 -- -- 59
2020-11-17 12:00:00 16.1 5 Nordeste 13 Sudoeste 0 -- -- 64
2020-11-17 11:00:00 13.4 8 Sudoeste 12 Sudoeste 0 -- -- 77
2020-11-17 10:00:00 9.7 10 Sudoeste 15 Sudoeste 0 -- -- 87
2020-11-17 09:00:00 6.7 9 Sudoeste 14 Sudoeste 0 -- -- 93
2020-11-17 08:00:00 4.9 8 Sudoeste 17 Oeste 0 -- -- 92
2020-11-17 07:00:00 5.5 10 Sudoeste 15 Sudoeste 0 -- -- 92
2020-11-17 06:00:00 5.1 11 Sudoeste 17 Oeste 0 -- -- 92
2020-11-17 05:00:00 5.8 10 Oeste 14 Oeste 0 -- -- 92
2020-11-17 04:00:00 6 7 Sudoeste 11 Sur 0 -- -- 91
2020-11-17 03:00:00 6.3 10 Sudoeste 15 Sudoeste 0 -- -- 90
2020-11-17 02:00:00 6.6 11 Sudoeste 17 Sudoeste 0 -- -- 91
2020-11-17 01:00:00 6.8 10 Sudoeste 13 Sudoeste 0 -- -- 90
2020-11-17 00:00:00 7.3 9 Sudoeste 14 Sudoeste 0 -- -- 88
2020-11-16 23:00:00 7.2 6 Sudoeste 14 Sudoeste 0 -- -- 87
2020-11-16 22:00:00 8.3 8 Sudoeste 15 Oeste 0 -- -- 87
2020-11-16 21:00:00 8.3 6 Sudoeste 12 Sudoeste 0 -- -- 86
2020-11-16 20:00:00 9.6 9 Oeste 13 Sudoeste 0 -- -- 86
2020-11-16 19:00:00 10.5 6 Sudoeste 11 Sudoeste 0 -- -- 79
2020-11-16 18:00:00 13.2 8 Oeste 12 Oeste 0 -- -- 70
2020-11-16 17:00:00 14.7 4 Noroeste 18 Noroeste 0 -- -- 66
2020-11-16 16:00:00 16.3 8 Oeste 25 Oeste 0 -- -- 59
2020-11-16 15:00:00 16.6 13 Sudoeste 25 Sudoeste 0 -- -- 59
2020-11-16 14:00:00 15.5 10 Sudoeste 20 Sudoeste 0 -- -- 63
2020-11-16 13:00:00 15 15 Sudoeste 24 Sudoeste 0 -- -- 69
2020-11-16 12:00:00 14.2 5 Noroeste 18 Oeste 0 -- -- 79
2020-11-16 11:00:00 13.6 10 Oeste 20 Sudoeste 0 -- -- 80
2020-11-16 10:00:00 12.5 3 Sudoeste 6 Sudoeste 0 -- -- 93
2020-11-16 09:00:00 11.4 0 Calma 10 Sudoeste 0 -- -- 92
2020-11-16 08:00:00 11.5 6 Oeste 10 Sudoeste 0 -- -- 92
2020-11-16 07:00:00 12.2 3 Sur 5 Sudoeste 0 -- -- 92
2020-11-16 06:00:00 12.4 0 Calma 9 Sudoeste 0 -- -- 93
2020-11-16 05:00:00 12.6 6 Sudoeste 14 Sudoeste 1 -- -- 93
2020-11-16 04:00:00 13 10 Sudoeste 14 Sudoeste 0 -- -- 90
2020-11-16 03:00:00 13.3 8 Sudoeste 23 Sudoeste 0 -- -- 86
2020-11-16 02:00:00 13.8 19 Sudoeste 42 Sudoeste 0 -- -- 85
2020-11-16 01:00:00 14.1 22 Sudoeste 36 Sur 0 -- -- 85
2020-11-16 00:00:00 14.4 26 Sudoeste 45 Sudoeste 0 -- -- 82
2020-11-15 23:00:00 14.2 25 Sudoeste 42 Sudoeste 0 -- -- 83
2020-11-15 22:00:00 14.3 20 Sudoeste 39 Sur 0 -- -- 82
2020-11-15 21:00:00 14.3 23 Sudoeste 40 Sudoeste 0 -- -- 81
2020-11-15 20:00:00 14.1 27 Sur 51 Sur 0 -- -- 83
2020-11-15 19:00:00 13.9 28 Sur 44 Sur 0 -- -- 84
2020-11-15 18:00:00 14.1 27 Sudoeste 40 Sudoeste 0 -- -- 83
2020-11-15 17:00:00 14.4 24 Sudoeste 43 Sur 0 -- -- 81
2020-11-15 16:00:00 14.8 27 Sudoeste 40 Sudoeste 0 -- -- 79
2020-11-15 15:00:00 15.4 28 Sudoeste 44 Sudoeste 0 -- -- 77
2020-11-15 14:00:00 15.5 28 Sudoeste 63 Sudoeste 0 -- -- 76
2020-11-15 13:00:00 15.7 35 Sur 54 Sudoeste 0 -- -- 74
2020-11-15 12:00:00 15 29 Sudoeste 50 Sudoeste 0 -- -- 77
2020-11-15 11:00:00 13.3 17 Sur 39 Sudoeste 0 -- -- 82
2020-11-15 10:00:00 13.5 17 Sudoeste 44 Sur 0.2 -- -- 80
2020-11-15 09:00:00 11.9 17 Sudoeste 32 Sudoeste 0 -- -- 85
2020-11-15 08:00:00 11.5 19 Sudoeste 38 Sur 0 -- -- 87
2020-11-15 07:00:00 11.4 19 Sudoeste 36 Sudoeste 0 -- -- 84
2020-11-15 06:00:00 11.5 23 Sudoeste 33 Sudoeste 0 -- -- 84
2020-11-15 05:00:00 11.8 18 Sudoeste 31 Sudoeste 0 -- -- 83
2020-11-15 04:00:00 11.8 19 Sudoeste 35 Sudoeste 0 -- -- 84
2020-11-15 03:00:00 11.7 21 Sudoeste 31 Sudoeste 0 -- -- 85
2020-11-15 02:00:00 11.7 26 Sudoeste 39 Sur 0 -- -- 86
2020-11-15 01:00:00 11.5 24 Sudoeste 34 Sudoeste 0 -- -- 85
2020-11-15 00:00:00 11.4 20 Sudoeste 37 Sudoeste 0 -- -- 85
2020-11-14 23:00:00 11.3 20 Sudoeste 30 Sudoeste 0 -- -- 85
2020-11-14 22:00:00 11.4 19 Sudoeste 36 Sudoeste 0 -- -- 85
2020-11-14 21:00:00 11.8 17 Sudoeste 27 Sudoeste 0 -- -- 87
2020-11-14 20:00:00 12 11 Sudoeste 17 Sur 0 -- -- 88
2020-11-14 19:00:00 11.9 9 Sudoeste 15 Sudoeste 0 -- -- 87
2020-11-14 18:00:00 12.3 8 Sudoeste 21 Sudoeste 0 -- -- 86
2020-11-14 17:00:00 12.5 12 Sudoeste 19 Sur 0 -- -- 85
2020-11-14 16:00:00 12.8 12 Sur 24 Sur 0.2 -- -- 84
2020-11-14 15:00:00 13.5 10 Sur 28 Sur 0 -- -- 78
2020-11-14 14:00:00 14 17 Sur 27 Sur 0 -- -- 75
2020-11-14 13:00:00 13 9 Sur 20 Sudoeste 0 -- -- 79
2020-11-14 12:00:00 10.4 4 Nordeste 8 Nordeste 0 -- -- 84
2020-11-14 11:00:00 9 3 Nordeste 6 Nordeste 0 -- -- 87
2020-11-14 10:00:00 6.6 3 Norte 5 Nordeste 0 -- -- 94
2020-11-14 09:00:00 5 0 Calma 4 Nordeste 0 -- -- 94
2020-11-14 08:00:00 4.3 0 Calma 6 Sudoeste 0 -- -- 93
2020-11-14 07:00:00 4.2 0 Calma 8 Sudoeste 0 -- -- 93
2020-11-14 06:00:00 3.9 2 Sudoeste 7 Sudoeste 0 -- -- 92
2020-11-14 05:00:00 4.7 5 Sudoeste 7 Sudoeste 0 -- -- 92
2020-11-14 04:00:00 4.9 0 Calma 8 Sudoeste 0 -- -- 90
2020-11-14 03:00:00 6.3 0 Calma 7 Sudoeste 0 -- -- 88
2020-11-14 02:00:00 7.4 0 Calma 9 Oeste 0 -- -- 87
2020-11-14 01:00:00 7.8 5 Sudoeste 8 Sudoeste 0 -- -- 86
2020-11-14 00:00:00 8.3 4 Sudoeste 9 Sudoeste 0 -- -- 85
2020-11-13 23:00:00 8.9 6 Oeste 9 Sudoeste 0 -- -- 81
2020-11-13 22:00:00 9.6 4 Sudoeste 12 Oeste 0 -- -- 80
2020-11-13 21:00:00 9.3 9 Oeste 13 Oeste 0 -- -- 80
2020-11-13 20:00:00 9.5 6 Oeste 12 Oeste 0 -- -- 78
2020-11-13 19:00:00 10.2 4 Sudoeste 8 Sudoeste 0 -- -- 72
2020-11-13 18:00:00 12.7 6 Sudoeste 17 Sur 0 -- -- 63
2020-11-13 17:00:00 14.9 13 Sudoeste 22 Sudoeste 0 -- -- 56
2020-11-13 16:00:00 16 11 Sur 24 Sur 0 -- -- 55
2020-11-13 15:00:00 15.9 13 Sur 21 Sudoeste 0 -- -- 56
2020-11-13 14:00:00 15 5 Sudoeste 17 Sudoeste 0 -- -- 61
2020-11-13 13:00:00 14 5 Nordeste 12 Nordeste 0 -- -- 67
2020-11-13 12:00:00 12 5 Nordeste 10 Nordeste 0 -- -- 72
2020-11-13 11:00:00 9.3 5 Nordeste 8 Nordeste 0 -- -- 83
2020-11-13 10:00:00 7.3 0 Calma 4 Sudoeste 0 -- -- 90
2020-11-13 09:00:00 5 0 Calma 4 Sudoeste 0 -- -- 93
2020-11-13 08:00:00 3.9 3 Sur 6 Sudoeste 0 -- -- 92
2020-11-13 07:00:00 4.2 3 Sudoeste 4 Sudoeste 0 -- -- 91
2020-11-13 06:00:00 4.7 0 Calma 5 Sudoeste 0 -- -- 91
2020-11-13 05:00:00 5.2 0 Calma 4 Sudoeste 0 -- -- 90
2020-11-13 04:00:00 5.8 0 Calma 4 Sudoeste 0 -- -- 89
2020-11-13 03:00:00 6.3 3 Oeste 8 Sudoeste 0 -- -- 89
2020-11-13 02:00:00 6.6 4 Sudoeste 6 Sudoeste 0 -- -- 88
2020-11-13 01:00:00 7.4 4 Sudoeste 9 Oeste 0 -- -- 88
2020-11-13 00:00:00 7.3 6 Sudoeste 13 Sudoeste 0 -- -- 89
2020-11-12 23:00:00 7.1 8 Sudoeste 12 Sudoeste 0 -- -- 88
2020-11-12 22:00:00 7.1 8 Sudoeste 12 Sudoeste 0 -- -- 88
2020-11-12 21:00:00 7.2 9 Sudoeste 13 Sudoeste 0 -- -- 86
2020-11-12 20:00:00 7.4 8 Sudoeste 15 Oeste 0 -- -- 84
2020-11-12 19:00:00 9.3 0 Calma 6 Sudoeste 0 -- -- 80
2020-11-12 18:00:00 11.8 0 Calma 4 Nordeste 0 -- -- 73
2020-11-12 17:00:00 13.4 2 Nordeste 6 Nordeste 0 -- -- 68
2020-11-12 16:00:00 13.7 4 Este 7 Nordeste 0 -- -- 65
2020-11-12 15:00:00 13.4 5 Nordeste 12 Nordeste 0 -- -- 65
2020-11-12 14:00:00 13.2 6 Nordeste 13 Este 0 -- -- 66
2020-11-12 13:00:00 12.4 9 Nordeste 13 Este 0 -- -- 73
2020-11-12 12:00:00 11.2 5 Nordeste 10 Nordeste 0 -- -- 76
2020-11-12 11:00:00 9.8 5 Nordeste 8 Nordeste 0 -- -- 81
2020-11-12 10:00:00 8.6 2 Oeste 13 Sudoeste 0 -- -- 86
2020-11-12 09:00:00 7.6 10 Oeste 17 Oeste 0 -- -- 87
2020-11-12 08:00:00 6.7 9 Oeste 13 Sudoeste 0 -- -- 88
2020-11-12 07:00:00 6.8 9 Sudoeste 13 Sudoeste 0 -- -- 87
2020-11-12 06:00:00 6.6 8 Sudoeste 13 Sudoeste 0 -- -- 86
2020-11-12 05:00:00 6.9 5 Sudoeste 14 Oeste 0 -- -- 85
2020-11-12 04:00:00 7.1 6 Sudoeste 14 Oeste 0 -- -- 84
2020-11-12 03:00:00 7.3 9 Oeste 13 Oeste 0 -- -- 83
2020-11-12 02:00:00 7.3 12 Oeste 16 Sudoeste 0 -- -- 83
2020-11-12 01:00:00 7.5 8 Oeste 13 Oeste 0 -- -- 83
2020-11-12 00:00:00 7.3 10 Oeste 18 Oeste 0 -- -- 83
2020-11-11 23:00:00 7.7 10 Sudoeste 15 Oeste 0 -- -- 81
2020-11-11 22:00:00 8.4 3 Sudoeste 12 Sudoeste 0 -- -- 76
2020-11-11 21:00:00 9.2 7 Sudoeste 18 Sudoeste 0 -- -- 74
2020-11-11 20:00:00 10 13 Sudoeste 21 Sudoeste 0 -- -- 69
2020-11-11 19:00:00 10.5 15 Sudoeste 22 Sudoeste 0 -- -- 65
2020-11-11 18:00:00 11.9 9 Sudoeste 23 Sudoeste 0 -- -- 64
2020-11-11 17:00:00 15.3 18 Sudoeste 26 Sudoeste 0 -- -- 55
2020-11-11 16:00:00 15.7 22 Sudoeste 33 Sur 0 -- -- 52
2020-11-11 15:00:00 16.6 18 Sur 40 Sudoeste 0 -- -- 50
2020-11-11 14:00:00 16.2 23 Sur 48 Sur 0 -- -- 51
2020-11-11 13:00:00 15.8 21 Sur 34 Sudoeste 0 -- -- 54
2020-11-11 12:00:00 13.7 16 Sur 24 Sudoeste 0 -- -- 66
2020-11-11 11:00:00 8.7 4 Nordeste 9 Nordeste 0 -- -- 78
2020-11-11 10:00:00 6.3 5 Nordeste 10 Nordeste 0 -- -- 84
2020-11-11 09:00:00 3.9 0 Calma 3 Norte 0 -- -- 93
2020-11-11 08:00:00 1.7 0 Calma 6 Sudoeste 0 -- -- 91
2020-11-11 07:00:00 2.5 2 Sudoeste 12 Oeste 0 -- -- 91
2020-11-11 06:00:00 2.5 6 Sudoeste 14 Sudoeste 0 -- -- 91
2020-11-11 05:00:00 2.9 10 Sudoeste 14 Sudoeste 0 -- -- 90
2020-11-11 04:00:00 3.4 8 Sudoeste 14 Sudoeste 0 -- -- 89
2020-11-11 03:00:00 4 12 Sudoeste 19 Sudoeste 0 -- -- 90
2020-11-11 02:00:00 4.6 11 Sudoeste 19 Sudoeste 0 -- -- 89
2020-11-11 01:00:00 4.1 10 Sudoeste 13 Sudoeste 0 -- -- 89
2020-11-11 00:00:00 5.4 9 Sudoeste 16 Oeste 0 -- -- 86
2020-11-10 23:00:00 6.1 12 Oeste 16 Oeste 0 -- -- 86
2020-11-10 22:00:00 6 13 Sudoeste 16 Sudoeste 0 -- -- 86
2020-11-10 21:00:00 6.7 8 Sudoeste 15 Sudoeste 0 -- -- 83
2020-11-10 20:00:00 7.5 11 Sudoeste 15 Sudoeste 0 -- -- 80
2020-11-10 19:00:00 8.3 12 Sudoeste 14 Sudoeste 0 -- -- 77
2020-11-10 18:00:00 12.6 0 Calma 4 Sudoeste 0 -- -- 64
2020-11-10 17:00:00 14.9 0 Calma 9 Noroeste 0 -- -- 55
2020-11-10 16:00:00 14.6 3 Noroeste 14 Noroeste 0 -- -- 55
2020-11-10 15:00:00 14.1 8 Noroeste 16 Noroeste 0 -- -- 60
2020-11-10 14:00:00 14.5 9 Noroeste 20 Noroeste 0 -- -- 59
2020-11-10 13:00:00 12.6 11 Oeste 18 Oeste 0 -- -- 69
2020-11-10 12:00:00 12.2 4 Noroeste 16 Oeste 0 -- -- 76
2020-11-10 11:00:00 11.7 12 Sudoeste 16 Sudoeste 0 -- -- 79
2020-11-10 10:00:00 10 6 Sudoeste 14 Sudoeste 0 -- -- 88
2020-11-10 09:00:00 5.9 0 Calma 11 Sudoeste 0 -- -- 96
2020-11-10 08:00:00 4.4 9 Sudoeste 13 Sudoeste 0 -- -- 94
2020-11-10 07:00:00 5 6 Sudoeste 16 Sudoeste 0 -- -- 91
2020-11-10 06:00:00 5.4 10 Oeste 17 Sudoeste 0 -- -- 92
2020-11-10 05:00:00 5.7 12 Oeste 15 Oeste -- -- -- 91
2020-11-10 04:00:00 6 7 Sudoeste 23 Sudoeste -- -- -- 89
2020-11-10 03:00:00 6.6 17 Sudoeste 23 Sudoeste -- -- -- 90
2020-11-10 02:00:00 6.6 10 Sudoeste 15 Sudoeste -- -- -- 89
2020-11-10 01:00:00 6.8 10 Sudoeste 16 Sudoeste -- -- -- 89
2020-11-10 00:00:00 7.1 8 Sudoeste 17 Sudoeste -- -- -- 86
2020-11-09 23:00:00 9.1 11 Sudoeste 16 Sudoeste -- -- -- 85
2020-11-09 22:00:00 9.6 12 Oeste 14 Oeste -- -- -- 83
2020-11-09 21:00:00 10.5 6 Sudoeste 19 Sudoeste -- -- -- 82
2020-11-09 20:00:00 11.1 13 Sudoeste 23 Sudoeste -- -- -- 79
2020-11-09 19:00:00 11.6 8 Oeste 14 Sudoeste -- -- -- 76
2020-11-09 18:00:00 13 10 Sudoeste 17 Sudoeste -- -- -- 69
2020-11-09 17:00:00 13.9 12 Sudoeste 24 Sudoeste -- -- -- 64
2020-11-09 16:00:00 14.9 14 Sudoeste 23 Sudoeste -- -- -- 63
2020-11-09 15:00:00 15.2 14 Sur 24 Sudoeste -- -- -- 62
2020-11-09 14:00:00 15 15 Sur 30 Sur -- -- -- 64
2020-11-09 13:00:00 -- 14 Sur -- -- -- -- -- --
2020-11-09 12:00:00 13.6 7 Sudoeste 23 Sudoeste -- -- -- 74
2020-11-09 11:00:00 12.7 14 Sudoeste 21 Sudoeste -- -- -- 80
2020-11-09 10:00:00 8.7 4 Sudoeste 10 Sudoeste -- -- -- 94
2020-11-09 09:00:00 8.9 2 Norte 21 Sudoeste -- -- -- 89
2020-11-09 08:00:00 9.1 13 Sudoeste 25 Sudoeste -- -- -- 90
2020-11-09 07:00:00 5.6 0 Calma 4 Este -- -- -- 94
2020-11-09 06:00:00 5 2 Oeste 5 Sudoeste -- -- -- 93
2020-11-09 05:00:00 4.7 0 Calma 6 Oeste -- -- -- 91
2020-11-09 04:00:00 5.8 3 Oeste 8 Sudoeste -- -- -- 91
2020-11-09 03:00:00 5.5 4 Sudoeste 6 Sudoeste -- -- -- 92
2020-11-09 02:00:00 5.5 2 Sudoeste 6 Sudoeste -- -- -- 91
2020-11-09 01:00:00 6.3 2 Norte 12 Oeste -- -- -- 89
2020-11-09 00:00:00 6.8 6 Oeste 10 Oeste -- -- -- 91
2020-11-08 23:00:00 6.4 3 Sudoeste 6 Sur -- -- -- 90
2020-11-08 22:00:00 6.7 0 Calma 11 Sudoeste -- -- -- 88
2020-11-08 21:00:00 7.4 0 Calma 6 Sudoeste -- -- -- 85
2020-11-08 20:00:00 8.9 4 Sudoeste 13 Sudoeste -- -- -- 81
2020-11-08 19:00:00 10.1 12 Oeste 17 Sur -- -- -- 78
2020-11-08 18:00:00 12.6 9 Sudoeste 36 Sur -- -- -- 64
2020-11-08 17:00:00 14.7 18 Sur 35 Sur -- -- -- 58
2020-11-08 16:00:00 15.5 13 Sur 35 Sur -- -- -- 56
2020-11-08 15:00:00 15.4 18 Sur 40 Sur -- -- -- 55
2020-11-08 14:00:00 15 23 Sudoeste 34 Sudoeste -- -- -- 61
2020-11-08 13:00:00 14.4 17 Sudoeste 40 Sur -- -- -- 64
2020-11-08 12:00:00 13.1 13 Sur 35 Sudoeste -- -- -- 68
2020-11-08 11:00:00 13.2 19 Sur 32 Sur -- -- -- 73
2020-11-08 10:00:00 10.3 3 Sudeste 14 Este -- -- -- 86
2020-11-08 09:00:00 9 4 Sur 10 Sudoeste -- -- -- 93
2020-11-08 08:00:00 6.8 4 Sur 7 Sur -- -- -- 92
2020-11-08 07:00:00 7.4 0 Calma 6 Nordeste -- -- -- 92
2020-11-08 06:00:00 7.8 0 Calma 5 Nordeste -- -- -- 92
2020-11-08 05:00:00 7.5 0 Calma 13 Sudoeste -- -- -- 90
2020-11-08 04:00:00 8.2 9 Sudoeste 19 Sudoeste -- -- -- 88
2020-11-08 03:00:00 8.7 11 Sudoeste 17 Sur -- -- -- 87
2020-11-08 02:00:00 8.2 3 Sudoeste 19 Sudoeste -- -- -- 90
2020-11-08 01:00:00 8.4 7 Sudoeste 13 Sudoeste -- -- -- 86
2020-11-08 00:00:00 9.7 5 Sudoeste 14 Oeste -- -- -- 84
2020-11-07 23:00:00 10.1 4 Sudoeste 21 Sudoeste -- -- -- 84
2020-11-07 22:00:00 10.6 12 Sudoeste 35 Sudoeste -- -- -- 82
2020-11-07 21:00:00 11.1 17 Sudoeste 28 Sur -- -- -- 82
2020-11-07 20:00:00 11.2 22 Sur 35 Sudoeste -- -- -- 83
2020-11-07 19:00:00 11 15 Sur 24 Sudoeste -- -- -- 84
2020-11-07 18:00:00 11.4 16 Sudoeste 30 Sudoeste -- -- -- 81
2020-11-07 17:00:00 12 21 Sudoeste 33 Sur -- -- -- 79
2020-11-07 16:00:00 11.9 24 Sudoeste 40 Sur -- -- -- 82
2020-11-07 15:00:00 12.5 23 Sudoeste 37 Sur -- -- -- 83
2020-11-07 14:00:00 12.6 21 Sudoeste 40 Sudoeste -- -- -- 81
2020-11-07 13:00:00 12.5 26 Sudoeste 39 Sudoeste -- -- -- 77
2020-11-07 12:00:00 12.6 24 Sur 37 Sur -- -- -- 78
2020-11-07 11:00:00 11.9 17 Sur 30 Sur -- -- -- 84
2020-11-07 10:00:00 11.3 11 Sur 21 Sur -- -- -- 93
2020-11-07 09:00:00 10 5 Norte 8 Norte -- -- -- 95
2020-11-07 08:00:00 9.7 3 Nordeste 13 Nordeste -- -- -- 94
2020-11-07 07:00:00 9.7 2 Sudeste 4 Sudoeste -- -- -- 93
2020-11-07 06:00:00 10.2 6 Oeste 48 Sudoeste -- -- -- 92
2020-11-07 05:00:00 10.7 35 Sudoeste 50 Sudoeste -- -- -- 91
2020-11-07 04:00:00 10.7 0 Calma 8 Sur -- -- -- 93
2020-11-07 03:00:00 10.8 0 Calma 8 Sur -- -- -- 93
2020-11-07 02:00:00 10.4 3 Sudeste 7 Sudeste -- -- -- 92
2020-11-07 01:00:00 10.3 0 Calma 5 Sur -- -- -- 90
2020-11-07 00:00:00 11.3 2 Sudoeste 6 Este -- -- -- 88
2020-11-06 23:00:00 12.4 0 Calma 12 Nordeste -- -- -- 85
2020-11-06 22:00:00 13.2 4 Nordeste 22 Nordeste -- -- -- 84
2020-11-06 21:00:00 13.6 13 Nordeste 30 Nordeste -- -- -- 82
2020-11-06 20:00:00 14.2 13 Norte 32 Norte -- -- -- 79
2020-11-06 19:00:00 14.6 21 Nordeste 33 Nordeste -- -- -- 77
2020-11-06 18:00:00 15.6 20 Nordeste 36 Nordeste -- -- -- 73
2020-11-06 17:00:00 16.5 20 Nordeste 38 Nordeste -- -- -- 71
2020-11-06 16:00:00 17.5 24 Nordeste 41 Nordeste -- -- -- 66
2020-11-06 15:00:00 16 19 Norte 39 Nordeste -- -- -- 78
2020-11-06 14:00:00 16 23 Nordeste 43 Nordeste -- -- -- 80
2020-11-06 13:00:00 14.8 24 Norte 38 Norte -- -- -- 85
2020-11-06 12:00:00 13.5 23 Nordeste 40 Nordeste -- -- -- 94
2020-11-06 11:00:00 11.8 15 Norte 30 Nordeste -- -- -- 97
2020-11-06 10:00:00 10.5 14 Nordeste 24 Nordeste -- -- -- 97
2020-11-06 09:00:00 9 4 Norte 7 Norte -- -- -- 97
2020-11-06 08:00:00 8.9 3 Nordeste 6 Nordeste -- -- -- 97
2020-11-06 07:00:00 8.9 3 Nordeste 6 Nordeste -- -- -- 97
2020-11-06 06:00:00 8.8 2 Sur 5 Sur -- -- -- 97
2020-11-06 05:00:00 8.7 0 Calma 7 Noroeste -- -- -- 96
2020-11-06 04:00:00 8.9 2 Nordeste 10 Oeste -- -- -- 96
2020-11-06 03:00:00 9 3 Noroeste 8 Nordeste -- -- -- 95
2020-11-06 02:00:00 9.2 3 Nordeste 12 Norte -- -- -- 96
2020-11-06 01:00:00 9.3 6 Norte 18 Nordeste -- -- -- 95
2020-11-06 00:00:00 9.2 8 Nordeste 19 Nordeste -- -- -- 96
2020-11-05 23:00:00 9.4 12 Norte 28 Nordeste -- -- -- 96
2020-11-05 22:00:00 9.5 17 Nordeste 35 Nordeste -- -- -- 96
2020-11-05 21:00:00 9.1 14 Nordeste 31 Nordeste -- -- -- 96
2020-11-05 20:00:00 9.1 14 Nordeste 28 Nordeste -- -- -- 95
2020-11-05 19:00:00 9.2 13 Nordeste 30 Norte -- -- -- 94
2020-11-05 18:00:00 9.3 17 Nordeste 29 Nordeste -- -- -- 92
2020-11-05 17:00:00 9.5 19 Nordeste 33 Nordeste -- -- -- 92
2020-11-05 16:00:00 9.7 15 Norte 35 Nordeste -- -- -- 91
2020-11-05 15:00:00 9.7 16 Nordeste 28 Nordeste -- -- -- 91
2020-11-05 14:00:00 9.5 14 Nordeste 26 Nordeste -- -- -- 92
2020-11-05 13:00:00 8.8 15 Nordeste 27 Nordeste -- -- -- 91
2020-11-05 12:00:00 8.4 11 Nordeste 21 Nordeste -- -- -- 92
2020-11-05 11:00:00 7.3 13 Nordeste 33 Nordeste -- -- -- 94
2020-11-05 10:00:00 6.9 17 Nordeste 27 Nordeste -- -- -- 95
2020-11-05 09:00:00 6.7 14 Nordeste 29 Nordeste -- -- -- 96
2020-11-05 08:00:00 6.3 14 Nordeste 28 Nordeste -- -- -- 96
2020-11-05 07:00:00 6 14 Nordeste 28 Nordeste -- -- -- 96
2020-11-05 06:00:00 5.9 14 Nordeste 28 Nordeste -- -- -- 96
2020-11-05 05:00:00 5.7 16 Nordeste 29 Nordeste -- -- -- 96
2020-11-05 04:00:00 5.5 16 Nordeste 30 Nordeste -- -- -- 96
2020-11-05 03:00:00 5.4 17 Nordeste 29 Nordeste -- -- -- 96
2020-11-05 02:00:00 5.4 14 Nordeste 25 Nordeste -- -- -- 96
2020-11-05 01:00:00 5.2 12 Nordeste 25 Norte -- -- -- 96
2020-11-05 00:00:00 5 16 Nordeste 24 Nordeste -- -- -- 95